Time;durP1;ratioP1;P1;durP2;ratioP2;P2;SDS_P1;SDS_P2;PMS_P1;PMS_P2;Temp;Humidity;BMP_temperature;BMP_pressure;BME280_temperature;BME280_humidity;BME280_pressure;Samples;Min_cycle;Max_cycle;Signal;HPM_P1;HPM_P2
2022/03/28 00:01:38;;;;;;;23.80;11.80;;;;;;;7.29;76.81;102417.78;4986566;28;20041;-76
2022/03/28 00:04:04;;;;;;;21.15;10.98;;;;;;;7.27;76.68;102415.34;5000780;28;20100;-76
2022/03/28 00:06:30;;;;;;;21.15;10.95;;;;;;;7.24;76.82;102418.09;5001958;28;20033;-75
2022/03/28 00:08:55;;;;;;;23.75;12.30;;;;;;;7.20;77.36;102417.44;4992480;28;20125;-75
2022/03/28 00:11:21;;;;;;;22.42;12.25;;;;;;;7.16;77.23;102405.66;4983140;28;20042;-75
2022/03/28 00:13:46;;;;;;;22.33;12.50;;;;;;;7.13;77.44;102411.00;5006714;28;20034;-75
2022/03/28 00:16:13;;;;;;;26.60;12.70;;;;;;;7.10;77.56;102402.63;5002967;28;20036;-75
2022/03/28 00:18:39;;;;;;;22.85;12.45;;;;;;;7.06;77.29;102394.25;4984578;28;20422;-75
2022/03/28 00:21:04;;;;;;;24.15;12.13;;;;;;;7.04;77.74;102387.53;5006166;28;20328;-75
2022/03/28 00:23:32;;;;;;;20.77;11.98;;;;;;;7.01;77.79;102389.38;4968790;28;20057;-75
2022/03/28 00:25:58;;;;;;;24.45;12.50;;;;;;;7.00;78.18;102385.13;5004141;28;20041;-75
2022/03/28 00:28:24;;;;;;;26.40;12.10;;;;;;;6.99;78.10;102377.50;4991594;28;20025;-75
2022/03/28 00:30:50;;;;;;;24.90;12.35;;;;;;;6.97;78.29;102379.34;4987818;28;20033;-75
2022/03/28 00:33:16;;;;;;;24.45;12.32;;;;;;;6.94;78.40;102384.69;5000536;28;20046;-75
2022/03/28 00:35:41;;;;;;;22.42;11.93;;;;;;;6.93;78.50;102383.00;5007446;28;20394;-75
2022/03/28 00:38:07;;;;;;;26.17;12.65;;;;;;;6.91;78.49;102380.56;4986535;28;20034;-75
2022/03/28 00:40:33;;;;;;;23.50;11.40;;;;;;;6.85;78.55;102378.31;5001709;28;20026;-76
2022/03/28 00:43:03;;;;;;;22.27;11.63;;;;;;;6.81;79.00;102372.53;4969134;28;20021;-75
2022/03/28 00:45:29;;;;;;;22.67;12.75;;;;;;;6.76;79.03;102366.84;4987983;28;20053;-76
2022/03/28 00:47:55;;;;;;;22.58;12.18;;;;;;;6.75;79.30;102365.16;4996839;28;20451;-75
2022/03/28 00:50:20;;;;;;;25.65;13.10;;;;;;;6.75;79.27;102370.31;4986474;28;21337;-74
2022/03/28 00:52:46;;;;;;;25.23;13.00;;;;;;;6.76;79.65;102363.41;4983669;28;20070;-75
2022/03/28 00:55:12;;;;;;;20.00;12.02;;;;;;;6.76;79.67;102366.00;4984325;28;20034;-75
2022/03/28 00:57:37;;;;;;;29.40;12.82;;;;;;;6.75;79.56;102362.59;4984536;28;20056;-75
2022/03/28 01:00:06;;;;;;;23.35;12.40;;;;;;;6.72;79.50;102359.38;4985023;28;20038;-75
2022/03/28 01:02:31;;;;;;;26.58;13.45;;;;;;;6.69;79.38;102360.38;5000498;28;20084;-74
2022/03/28 01:04:58;;;;;;;26.95;13.82;;;;;;;6.67;79.51;102366.53;4986465;28;20038;-75
2022/03/28 01:07:26;;;;;;;25.63;13.07;;;;;;;6.60;79.75;102361.75;4997449;28;20046;-75
2022/03/28 01:09:51;;;;;;;24.77;11.88;;;;;;;6.57;79.97;102367.13;5003294;28;20056;-75
2022/03/28 01:12:17;;;;;;;23.70;12.93;;;;;;;6.55;79.78;102353.47;4985309;28;20415;-75
2022/03/28 01:14:44;;;;;;;27.05;13.13;;;;;;;6.52;79.77;102355.44;4986440;28;20079;-74
2022/03/28 01:19:55;;;;;;;27.50;12.82;;;;;;;6.48;80.11;102343.63;4982290;28;20034;-75
2022/03/28 01:22:20;;;;;;;24.92;13.18;;;;;;;6.39;80.02;102330.38;5002876;28;20509;-75
2022/03/28 01:24:47;;;;;;;24.65;12.63;;;;;;;6.31;80.23;102329.16;4985752;28;20030;-75
2022/03/28 01:27:14;;;;;;;26.02;12.57;;;;;;;6.22;80.68;102339.09;4999478;28;20025;-75
2022/03/28 01:29:44;;;;;;;30.13;14.15;;;;;;;6.16;80.89;102329.16;4987040;28;20437;-75
2022/03/28 01:32:10;;;;;;;25.52;12.45;;;;;;;6.12;80.79;102319.97;5003582;28;20041;-75
2022/03/28 01:34:35;;;;;;;28.55;13.45;;;;;;;6.10;81.16;102326.91;5002312;28;20026;-75
2022/03/28 01:37:01;;;;;;;26.40;13.45;;;;;;;6.08;81.13;102315.88;4983883;28;20394;-75
2022/03/28 01:39:26;;;;;;;28.15;13.57;;;;;;;6.08;81.46;102322.78;4985379;28;20494;-75
2022/03/28 01:41:52;;;;;;;30.02;13.82;;;;;;;6.08;81.65;102325.38;4985138;28;20513;-75
2022/03/28 01:44:18;;;;;;;28.67;13.82;;;;;;;6.06;81.30;102317.72;4981826;28;20414;-75
2022/03/28 01:46:46;;;;;;;27.63;13.32;;;;;;;6.00;81.70;102320.66;4984812;28;20030;-75
2022/03/28 01:49:12;;;;;;;31.60;15.38;;;;;;;5.94;81.87;102318.41;5003892;28;20049;-74
2022/03/28 01:51:38;;;;;;;25.48;13.07;;;;;;;5.91;82.64;102316.00;5004317;28;20018;-75
2022/03/28 01:54:04;;;;;;;27.75;12.75;;;;;;;5.88;82.60;102319.59;4989565;28;20040;-75
2022/03/28 01:56:30;;;;;;;25.17;13.43;;;;;;;5.87;82.95;102317.94;4999151;28;20477;-75
2022/03/28 01:58:55;;;;;;;30.15;14.23;;;;;;;5.85;82.18;102323.16;5000804;28;20029;-75
2022/03/28 02:01:21;;;;;;;25.23;13.15;;;;;;;5.84;82.94;102318.13;5003891;28;20029;-75
2022/03/28 02:03:47;;;;;;;30.65;14.55;;;;;;;5.81;82.75;102308.81;5001933;28;20044;-75
2022/03/28 02:06:12;;;;;;;25.77;13.95;;;;;;;5.77;82.94;102301.38;4986689;28;20034;-75
2022/03/28 02:08:38;;;;;;;27.02;13.30;;;;;;;5.73;82.36;102302.47;4965316;28;20042;-75
2022/03/28 02:11:03;;;;;;;28.20;14.13;;;;;;;5.70;83.13;102302.63;4983621;28;20037;-75
2022/03/28 02:13:29;;;;;;;31.25;14.75;;;;;;;5.66;83.13;102297.66;4971453;28;20038;-75
2022/03/28 02:15:54;;;;;;;30.55;14.15;;;;;;;5.66;83.26;102292.50;4982353;28;20133;-75
2022/03/28 02:18:20;;;;;;;28.27;13.65;;;;;;;5.68;82.87;102286.44;4995338;28;20072;-75
2022/03/28 02:20:45;;;;;;;27.23;14.05;;;;;;;5.64;82.95;102281.47;4987570;28;20390;-75
2022/03/28 02:23:11;;;;;;;29.65;13.73;;;;;;;5.58;82.87;102281.81;4993452;28;20026;-75
2022/03/28 02:25:38;;;;;;;31.20;14.35;;;;;;;5.55;83.18;102286.31;4992665;28;20037;-75
2022/03/28 02:28:04;;;;;;;28.05;13.82;;;;;;;5.54;83.15;102284.63;4987456;28;20038;-74
2022/03/28 02:30:30;;;;;;;30.17;14.60;;;;;;;5.52;83.45;102289.03;4988033;28;20069;-74
2022/03/28 02:32:57;;;;;;;33.75;15.60;;;;;;;5.53;83.07;102288.16;5008330;28;20034;-74
2022/03/28 02:35:23;;;;;;;31.25;14.48;;;;;;;5.52;82.91;102289.91;4987925;28;20391;-74
2022/03/28 02:37:49;;;;;;;30.83;14.07;;;;;;;5.49;83.27;102281.53;4988184;28;20533;-75
2022/03/28 02:40:14;;;;;;;26.70;14.30;;;;;;;5.45;83.38;102276.53;5003566;28;20046;-75
2022/03/28 02:42:41;;;;;;;32.75;14.60;;;;;;;5.44;83.09;102276.63;4991243;28;20022;-75
2022/03/28 02:45:08;;;;;;;28.85;14.73;;;;;;;5.40;83.48;102277.72;4989851;28;21711;-75
2022/03/28 02:47:34;;;;;;;28.95;14.85;;;;;;;5.34;82.99;102270.34;4990531;28;20042;-75
2022/03/28 02:49:59;;;;;;;28.70;13.75;;;;;;;5.30;83.35;102263.72;4989311;28;20550;-75
2022/03/28 02:52:25;;;;;;;30.15;13.93;;;;;;;5.25;83.62;102257.09;4987777;28;20092;-75
2022/03/28 02:54:50;;;;;;;27.33;13.93;;;;;;;5.20;83.67;102266.78;5005483;28;20088;-75
2022/03/28 02:57:16;;;;;;;26.85;14.02;;;;;;;5.16;83.53;102254.19;4988142;28;20053;-75
2022/03/28 02:59:41;;;;;;;31.63;14.27;;;;;;;5.16;83.74;102251.59;4986186;28;20041;-75
2022/03/28 03:02:07;;;;;;;29.30;14.43;;;;;;;5.16;83.83;102249.88;4992627;28;20041;-74
2022/03/28 03:04:33;;;;;;;29.02;14.95;;;;;;;5.18;83.60;102244.63;5004764;28;20041;-75
2022/03/28 03:06:59;;;;;;;34.72;15.38;;;;;;;5.18;83.87;102242.06;4990323;28;20033;-75
2022/03/28 03:09:25;;;;;;;33.53;15.65;;;;;;;5.17;83.83;102237.84;4988514;28;20319;-76
2022/03/28 03:11:50;;;;;;;31.88;15.55;;;;;;;5.16;84.07;102249.03;5004772;28;20056;-75
2022/03/28 03:14:16;;;;;;;33.97;15.98;;;;;;;5.14;84.63;102241.44;5004577;28;20934;-75
2022/03/28 03:16:41;;;;;;;38.65;16.35;;;;;;;5.11;84.42;102244.16;5003376;28;20061;-75
2022/03/28 03:19:07;;;;;;;44.88;17.17;;;;;;;5.12;84.86;102244.97;5006302;28;20045;-75
2022/03/28 03:21:32;;;;;;;38.70;17.80;;;;;;;5.10;84.55;102234.78;5002146;28;20129;-75
2022/03/28 03:23:58;;;;;;;41.13;19.27;;;;;;;5.09;84.66;102238.28;4989042;28;20025;-75
2022/03/28 03:26:23;;;;;;;39.08;18.75;;;;;;;5.10;84.47;102239.91;5005362;28;20454;-75
2022/03/28 03:28:49;;;;;;;42.50;17.27;;;;;;;5.09;84.71;102238.28;4990407;28;20029;-75
2022/03/28 03:31:14;;;;;;;36.50;16.58;;;;;;;5.05;84.44;102232.47;5004222;28;20037;-75
2022/03/28 03:33:40;;;;;;;43.70;18.27;;;;;;;5.05;85.04;102235.03;5003472;28;20048;-75
2022/03/28 03:36:06;;;;;;;37.65;16.33;;;;;;;5.01;84.49;102228.41;5003119;28;20038;-75
2022/03/28 03:38:32;;;;;;;37.63;17.98;;;;;;;5.00;84.99;102218.22;5002541;28;20030;-75
2022/03/28 03:40:58;;;;;;;41.40;17.50;;;;;;;4.99;85.09;102231.97;5006320;28;20679;-75
2022/03/28 03:43:25;;;;;;;39.60;17.48;;;;;;;4.97;84.83;102232.06;4990605;28;20042;-75
2022/03/28 03:45:51;;;;;;;42.17;17.80;;;;;;;4.96;85.04;102224.44;5003363;28;20029;-75
2022/03/28 03:48:18;;;;;;;42.97;18.15;;;;;;;4.94;85.02;102223.69;5002449;28;20042;-75
2022/03/28 03:50:44;;;;;;;37.35;17.02;;;;;;;4.92;84.97;102217.81;5003737;28;20038;-76
2022/03/28 03:53:10;;;;;;;38.75;18.10;;;;;;;4.89;84.97;102221.38;4985767;28;20046;-76
2022/03/28 03:55:36;;;;;;;37.63;17.48;;;;;;;4.87;84.87;102218.06;4987292;28;20176;-74
2022/03/28 03:58:02;;;;;;;42.83;17.73;;;;;;;4.85;85.30;102213.00;5002887;28;20053;-75
2022/03/28 04:00:27;;;;;;;42.55;17.92;;;;;;;4.85;85.27;102218.13;4988085;28;20045;-75
2022/03/28 04:02:53;;;;;;;40.40;17.20;;;;;;;4.82;85.55;102209.75;5005345;28;20718;-75
2022/03/28 04:05:18;;;;;;;39.92;17.48;;;;;;;4.79;85.37;102210.75;4983259;28;20041;-75
2022/03/28 04:07:44;;;;;;;41.17;17.38;;;;;;;4.78;85.46;102215.97;5005590;28;20381;-75
2022/03/28 04:10:10;;;;;;;37.97;17.58;;;;;;;4.74;85.52;102210.19;4987620;28;20751;-75
2022/03/28 04:12:36;;;;;;;41.65;16.27;;;;;;;4.73;85.25;102211.09;4985616;28;20032;-75
2022/03/28 04:15:02;;;;;;;37.70;16.60;;;;;;;4.70;85.23;102203.56;4986427;28;20034;-75
2022/03/28 04:17:29;;;;;;;43.42;18.48;;;;;;;4.67;85.25;102203.72;4985993;28;20034;-75
2022/03/28 04:19:55;;;;;;;41.25;17.70;;;;;;;4.63;85.43;102197.09;4988243;28;20469;-75
2022/03/28 04:22:21;;;;;;;38.30;16.95;;;;;;;4.57;85.75;102195.66;4999679;28;20054;-75
2022/03/28 04:24:46;;;;;;;37.70;15.80;;;;;;;4.52;86.04;102192.53;4991666;28;20126;-75
2022/03/28 04:27:12;;;;;;;36.30;16.83;;;;;;;4.47;85.99;102197.91;4989449;28;20042;-75
2022/03/28 04:29:37;;;;;;;44.30;17.90;;;;;;;4.45;85.76;102196.34;4984619;28;20048;-75
2022/03/28 04:32:03;;;;;;;40.67;16.48;;;;;;;4.43;85.81;102191.28;5003774;28;20045;-75
2022/03/28 04:34:29;;;;;;;43.38;17.40;;;;;;;4.42;86.25;102191.38;5000819;28;20069;-75
2022/03/28 04:36:54;;;;;;;41.83;17.42;;;;;;;4.40;86.22;102193.19;4987549;28;20038;-75
2022/03/28 04:39:20;;;;;;;40.97;16.70;;;;;;;4.38;86.45;102188.13;4969366;28;20335;-75
2022/03/28 04:41:45;;;;;;;38.80;17.05;;;;;;;4.37;86.76;102191.63;5000398;28;20080;-74
2022/03/28 04:44:10;;;;;;;41.20;17.75;;;;;;;4.35;86.64;102190.88;4985728;28;20030;-75
2022/03/28 04:46:36;;;;;;;35.38;16.80;;;;;;;4.33;86.52;102187.53;4986741;28;20037;-75
2022/03/28 04:49:02;;;;;;;35.13;16.48;;;;;;;4.32;86.63;102185.91;4984467;28;20061;-76
2022/03/28 04:51:27;;;;;;;38.00;17.60;;;;;;;4.31;86.75;102184.22;4986221;28;20419;-75
2022/03/28 04:53:52;;;;;;;40.17;17.27;;;;;;;4.27;86.64;102190.44;4987422;28;20045;-75
2022/03/28 04:56:18;;;;;;;41.17;15.90;;;;;;;4.23;86.77;102189.75;5000509;28;20437;-75
2022/03/28 04:58:43;;;;;;;39.08;16.60;;;;;;;4.21;86.66;102195.91;4984511;28;20025;-74
2022/03/28 05:01:09;;;;;;;45.55;17.80;;;;;;;4.20;86.74;102197.66;5002925;28;20034;-75
2022/03/28 05:03:34;;;;;;;43.85;18.15;;;;;;;4.21;87.16;102195.91;5008572;28;20087;-75
2022/03/28 05:06:00;;;;;;;44.35;18.98;;;;;;;4.20;87.22;102196.78;4970170;28;20042;-76
2022/03/28 05:08:25;;;;;;;43.60;19.33;;;;;;;4.19;86.92;102197.72;4986356;28;20038;-74
2022/03/28 05:10:51;;;;;;;45.53;19.10;;;;;;;4.16;87.01;102191.00;5003840;28;20045;-75
2022/03/28 05:13:16;;;;;;;47.90;18.15;;;;;;;4.16;87.05;102193.56;4986674;28;20041;-75
2022/03/28 05:15:42;;;;;;;46.20;18.88;;;;;;;4.15;87.35;102194.47;5000978;28;20507;-75
2022/03/28 05:18:07;;;;;;;43.45;17.52;;;;;;;4.13;87.57;102192.91;5004554;28;20026;-75
2022/03/28 05:20:33;;;;;;;43.53;17.05;;;;;;;4.13;87.68;102192.91;4987185;28;21734;-75
2022/03/28 05:22:58;;;;;;;50.00;19.67;;;;;;;4.10;87.76;102183.63;5003701;28;20033;-75
2022/03/28 05:25:23;;;;;;;46.17;18.10;;;;;;;4.10;87.50;102186.19;4984820;28;20028;-75
2022/03/28 05:27:49;;;;;;;46.25;18.35;;;;;;;4.09;88.07;102187.09;4988387;28;21963;-75
2022/03/28 05:30:16;;;;;;;43.20;19.52;;;;;;;4.07;87.96;102184.63;4985319;28;20037;-75
2022/03/28 05:32:42;;;;;;;42.55;18.55;;;;;;;4.09;87.75;102190.50;4985491;28;20473;-75
2022/03/28 05:35:08;;;;;;;46.03;19.48;;;;;;;4.08;88.11;102185.44;4990263;28;20099;-75
2022/03/28 05:37:35;;;;;;;46.20;18.67;;;;;;;4.07;87.90;102192.31;5002492;28;20400;-75
2022/03/28 05:40:02;;;;;;;54.60;20.95;;;;;;;4.07;87.92;102192.31;5001058;28;20060;-75
2022/03/28 05:42:27;;;;;;;48.33;19.55;;;;;;;4.01;88.70;102184.09;5002369;28;20071;-75
2022/03/28 05:44:53;;;;;;;48.45;19.65;;;;;;;4.00;89.01;102196.09;4984536;28;20025;-75
2022/03/28 05:47:19;;;;;;;45.65;19.17;;;;;;;4.02;89.30;102190.91;4998119;28;20483;-75
2022/03/28 05:49:44;;;;;;;44.70;18.48;;;;;;;4.03;89.26;102195.09;5000295;28;20104;-75
2022/03/28 05:52:10;;;;;;;44.08;17.00;;;;;;;4.03;89.03;102197.66;4988649;28;20029;-76
2022/03/28 05:54:36;;;;;;;46.30;18.48;;;;;;;4.02;89.33;102178.06;5006208;28;20542;-75
2022/03/28 05:57:01;;;;;;;43.97;19.50;;;;;;;4.02;89.44;102184.03;4989807;28;20065;-76
2022/03/28 05:59:27;;;;;;;48.47;18.63;;;;;;;4.02;89.40;102178.06;4988779;28;20034;-75
2022/03/28 06:01:53;;;;;;;43.28;18.50;;;;;;;4.01;89.53;102182.38;4989259;28;20575;-75
2022/03/28 06:04:19;;;;;;;48.17;19.45;;;;;;;4.02;89.78;102175.50;4989398;28;20038;-75
2022/03/28 06:06:44;;;;;;;46.15;18.58;;;;;;;4.02;89.88;102173.75;4988297;28;20060;-75
2022/03/28 06:09:10;;;;;;;45.75;19.15;;;;;;;4.03;89.85;102180.56;4989057;28;20026;-75
2022/03/28 06:11:36;;;;;;;46.15;18.13;;;;;;;4.07;90.24;102176.91;5005870;28;20467;-75
2022/03/28 06:14:02;;;;;;;40.72;18.17;;;;;;;4.12;89.92;102178.41;5002242;28;20307;-75
2022/03/28 06:16:28;;;;;;;46.25;18.77;;;;;;;4.16;90.14;102175.59;4971105;28;20041;-75
2022/03/28 06:18:53;;;;;;;53.20;18.73;;;;;;;4.24;89.81;102182.91;4992214;28;20766;-75
2022/03/28 06:21:19;;;;;;;47.72;20.13;;;;;;;4.29;89.68;102184.31;4987846;28;20033;-75
2022/03/28 06:23:44;;;;;;;46.42;20.73;;;;;;;4.35;90.33;102178.03;4992338;28;20459;-75
2022/03/28 06:26:10;;;;;;;50.88;18.77;;;;;;;4.39;89.92;102187.22;5004672;28;20113;-75
2022/03/28 06:28:39;;;;;;;51.85;20.33;;;;;;;4.46;90.10;102177.44;5003070;28;20030;-75
2022/03/28 06:31:05;;;;;;;50.15;20.17;;;;;;;4.54;90.15;102184.72;5008088;28;20036;-75
2022/03/28 06:33:30;;;;;;;49.33;19.35;;;;;;;4.62;90.26;102182.59;5005788;28;20044;-75
2022/03/28 06:35:56;;;;;;;47.42;19.60;;;;;;;4.70;90.12;102177.84;4991090;28;20046;-74
2022/03/28 06:38:22;;;;;;;53.90;21.15;;;;;;;4.82;89.79;102177.19;4991208;28;20086;-76
2022/03/28 06:40:47;;;;;;;52.67;20.60;;;;;;;4.95;89.81;102173.94;4988454;28;20092;-74
2022/03/28 06:43:13;;;;;;;50.60;19.98;;;;;;;5.10;89.74;102173.06;5002678;28;20038;-76
2022/03/28 06:45:38;;;;;;;51.35;20.27;;;;;;;5.30;89.44;102176.25;4999225;28;20298;-76
2022/03/28 06:48:04;;;;;;;45.53;19.02;;;;;;;5.55;89.68;102176.47;4989483;28;20549;-76
2022/03/28 06:50:30;;;;;;;62.88;25.80;;;;;;;5.91;90.16;102167.50;4972339;28;20034;-75
2022/03/28 06:52:56;;;;;;;54.25;23.58;;;;;;;6.33;89.36;102163.28;5002241;28;20391;-75
2022/03/28 06:55:22;;;;;;;50.25;22.17;;;;;;;7.00;87.35;102150.41;4988041;28;20234;-75
2022/03/28 06:57:48;;;;;;;55.47;21.27;;;;;;;7.83;84.96;102159.56;4986937;28;20446;-75
2022/03/28 07:00:14;;;;;;;49.90;20.65;;;;;;;8.61;81.29;102147.28;4985353;28;20036;-75
2022/03/28 07:02:40;;;;;;;60.47;21.67;;;;;;;9.17;77.45;102147.50;4989311;28;20033;-75
2022/03/28 07:05:07;;;;;;;52.97;20.20;;;;;;;9.73;73.83;102141.59;4986434;28;20017;-76
2022/03/28 07:07:47;;;;;;;53.90;20.88;;;;;;;10.08;72.66;102138.03;4985265;28;20119;-76
2022/03/28 07:10:15;;;;;;;54.25;19.75;;;;;;;10.59;70.52;102142.66;5007752;28;20041;-76
2022/03/28 07:12:41;;;;;;;48.67;20.58;;;;;;;10.90;69.95;102133.19;4988326;28;20041;-76
2022/03/28 07:15:08;;;;;;;42.72;18.88;;;;;;;11.28;68.36;102134.41;5003880;28;20030;-75
2022/03/28 07:17:55;;;;;;;43.67;19.40;;;;;;;11.61;66.62;102129.91;5003864;28;20063;-76
2022/03/28 07:20:22;;;;;;;43.88;18.65;;;;;;;11.88;65.07;102129.34;5006554;28;20041;-75
2022/03/28 07:22:48;;;;;;;41.58;17.33;;;;;;;12.24;64.39;102124.53;4983835;28;20069;-75
2022/03/28 07:25:13;;;;;;;38.72;17.90;;;;;;;12.50;62.59;102125.78;4989871;28;20061;-75
2022/03/28 07:27:40;;;;;;;37.78;17.85;;;;;;;12.56;62.46;102126.03;4992796;28;20092;-75
2022/03/28 07:30:07;;;;;;;38.75;17.08;;;;;;;12.90;61.25;102120.41;5002302;28;20026;-76
2022/03/28 07:32:33;;;;;;;38.75;17.80;;;;;;;12.85;60.62;102120.84;4986727;28;20542;-76
2022/03/28 07:34:58;;;;;;;46.25;18.15;;;;;;;13.04;61.04;102121.78;4988896;28;20083;-76
2022/03/28 07:37:24;;;;;;;44.00;18.73;;;;;;;13.19;61.04;102117.75;5003953;28;20038;-75
2022/03/28 07:39:49;;;;;;;43.88;19.08;;;;;;;13.27;59.33;102116.25;4988576;28;20150;-75
2022/03/28 07:42:15;;;;;;;45.80;18.05;;;;;;;13.67;59.25;102115.97;4989118;28;20384;-76
2022/03/28 07:44:42;;;;;;;42.50;17.38;;;;;;;13.92;59.08;102117.09;4987303;28;20084;-77
2022/03/28 07:47:08;;;;;;;33.05;17.23;;;;;;;14.18;58.51;102106.78;5002015;28;20174;-76
2022/03/28 07:49:40;;;;;;;37.72;17.75;;;;;;;14.29;58.51;102105.72;4988205;28;20030;-76
2022/03/28 07:52:08;;;;;;;38.00;16.85;;;;;;;14.40;57.54;102105.50;5004386;28;20519;-76
2022/03/28 07:54:34;;;;;;;35.70;16.83;;;;;;;14.69;56.60;102098.44;5002198;28;20558;-76
2022/03/28 07:57:00;;;;;;;37.53;18.08;;;;;;;14.68;57.26;102092.41;5005543;28;20026;-76
2022/03/28 07:59:25;;;;;;;40.22;16.92;;;;;;;14.78;56.24;102087.06;4988086;28;20096;-78
2022/03/28 08:01:51;;;;;;;40.45;18.27;;;;;;;14.91;56.95;102090.09;4981062;28;20061;-77
2022/03/28 08:04:17;;;;;;;39.58;16.95;;;;;;;15.21;56.09;102081.97;4969709;28;20056;-75
2022/03/28 08:06:43;;;;;;;40.85;18.15;;;;;;;15.18;56.18;102077.84;4987629;28;20378;-76
2022/03/28 08:09:09;;;;;;;46.80;17.65;;;;;;;15.40;54.54;102079.09;4987425;28;20037;-77
2022/03/28 08:11:35;;;;;;;38.05;17.42;;;;;;;15.70;53.48;102076.94;4985951;28;20133;-75
2022/03/28 08:14:03;;;;;;;35.78;18.90;;;;;;;15.67;54.29;102075.47;5000977;28;20061;-76
2022/03/28 08:16:29;;;;;;;36.90;17.30;;;;;;;15.79;52.28;102070.78;5003648;28;20149;-76
2022/03/28 08:18:55;;;;;;;40.90;18.92;;;;;;;15.39;52.95;102072.25;4971931;28;20030;-77
2022/03/28 08:21:20;;;;;;;33.65;16.52;;;;;;;15.83;53.19;102066.06;4990478;28;20041;-76
2022/03/28 08:23:46;;;;;;;40.47;19.65;;;;;;;15.93;51.84;102066.72;5007686;28;20107;-77
2022/03/28 08:26:11;;;;;;;38.63;17.40;;;;;;;15.97;51.96;102073.25;4986626;28;20029;-76
2022/03/28 08:28:36;;;;;;;38.10;18.38;;;;;;;16.08;52.17;102069.53;5003433;28;20479;-76
2022/03/28 08:31:03;;;;;;;46.85;19.77;;;;;;;16.16;53.22;102072.16;4987764;28;20052;-76
2022/03/28 08:33:28;;;;;;;38.17;17.90;;;;;;;16.38;52.63;102067.25;4985408;28;20533;-76
2022/03/28 08:35:54;;;;;;;36.78;18.30;;;;;;;16.78;52.67;102060.34;4992702;28;20029;-75
2022/03/28 08:38:19;;;;;;;41.78;17.65;;;;;;;16.67;52.24;102057.09;4987400;28;20354;-76
2022/03/28 08:40:45;;;;;;;36.08;17.50;;;;;;;16.97;51.08;102043.47;5003309;28;20033;-76
2022/03/28 08:43:10;;;;;;;32.30;16.48;;;;;;;17.27;50.30;102037.50;4985798;28;20068;-75
2022/03/28 08:45:41;;;;;;;41.08;17.50;;;;;;;17.48;50.18;102044.78;4987595;28;20479;-76
2022/03/28 08:48:11;;;;;;;38.47;18.70;;;;;;;17.61;48.68;102044.22;5005565;28;20038;-75
2022/03/28 08:50:41;;;;;;;35.03;18.80;;;;;;;17.55;49.81;102042.25;4988432;28;20022;-76
2022/03/28 08:53:07;;;;;;;34.75;18.23;;;;;;;17.39;49.08;102042.38;5001015;28;20274;-76
2022/03/28 08:55:33;;;;;;;35.72;17.52;;;;;;;17.40;49.27;102044.78;4988218;28;20065;-76
2022/03/28 08:57:58;;;;;;;39.45;19.60;;;;;;;17.46;48.95;102040.66;4987031;28;20104;-76
2022/03/28 09:00:24;;;;;;;39.70;18.38;;;;;;;17.52;48.98;102040.81;4987611;28;20049;-76
2022/03/28 09:02:50;;;;;;;43.25;19.55;;;;;;;17.43;49.11;102041.84;4991917;28;20038;-76
2022/03/28 09:05:17;;;;;;;39.97;19.60;;;;;;;17.57;49.49;102036.84;4989717;28;20038;-76
2022/03/28 09:07:43;;;;;;;37.40;20.65;;;;;;;17.25;49.71;102034.22;4987543;28;20044;-76
2022/03/28 09:10:14;;;;;;;36.10;19.08;;;;;;;17.66;48.76;102036.63;5006065;28;20042;-76
2022/03/28 09:13:09;;;;;;;38.58;19.50;;;;;;;17.67;48.25;102029.59;5004293;28;20486;-77
2022/03/28 09:15:41;;;;;;;36.53;18.42;;;;;;;17.50;48.90;102029.69;4981319;28;20077;-76
2022/03/28 09:18:07;;;;;;;38.13;18.98;;;;;;;17.44;48.77;102025.13;5001208;28;20659;-77
2022/03/28 09:20:35;;;;;;;33.13;17.35;;;;;;;17.77;48.54;102016.25;4998693;28;20399;-77
2022/03/28 09:23:25;;;;;;;43.75;19.98;;;;;;;17.67;49.07;102016.47;5003330;28;20540;-78
2022/03/28 09:25:51;;;;;;;38.67;19.33;;;;;;;17.61;50.07;102017.16;4983954;28;20041;-77
2022/03/28 09:28:46;;;;;;;36.75;19.05;;;;;;;17.76;50.75;102004.91;4990288;28;20045;-77
2022/03/28 09:31:18;;;;;;;38.88;19.58;;;;;;;17.68;50.78;102005.78;4985488;28;20066;-77
2022/03/28 09:34:14;;;;;;;38.10;18.35;;;;;;;17.38;50.93;102010.06;4985960;28;20038;-77
2022/03/28 09:36:55;;;;;;;42.60;19.88;;;;;;;17.37;50.26;102011.06;5002184;28;20057;-77
2022/03/28 09:39:27;;;;;;;41.55;20.60;;;;;;;17.34;51.45;102008.78;4998176;28;20041;-77
2022/03/28 09:42:05;;;;;;;41.85;20.33;;;;;;;17.36;50.63;102013.84;4968356;28;20041;-78
2022/03/28 09:44:49;;;;;;;38.65;19.33;;;;;;;17.27;50.91;102000.81;5003020;28;20025;-77
2022/03/28 09:47:18;;;;;;;36.97;18.73;;;;;;;17.38;51.86;101998.78;4982047;28;20148;-76
2022/03/28 09:49:46;;;;;;;39.13;19.83;;;;;;;17.35;51.72;101999.94;5001905;28;20040;-77
2022/03/28 09:52:20;;;;;;;55.50;21.58;;;;;;;17.42;51.86;101994.81;5003667;28;20479;-77
2022/03/28 09:54:57;;;;;;;39.97;20.50;;;;;;;17.41;52.29;101990.56;4987584;28;20052;-77
2022/03/28 09:57:31;;;;;;;37.92;19.38;;;;;;;17.25;52.41;101989.69;4999632;28;20521;-76
2022/03/28 10:00:10;;;;;;;41.50;20.23;;;;;;;17.36;52.29;101992.88;4986310;28;20388;-76
2022/03/28 10:02:36;;;;;;;42.13;20.05;;;;;;;17.38;51.82;101985.66;5001614;28;20040;-77
2022/03/28 10:05:02;;;;;;;38.60;19.50;;;;;;;17.46;51.89;101989.06;4985053;28;20057;-77
2022/03/28 10:07:30;;;;;;;41.63;21.60;;;;;;;17.54;53.98;101987.38;4981091;28;20236;-77
2022/03/28 10:09:57;;;;;;;44.20;22.10;;;;;;;17.59;51.63;101983.22;5002899;28;20140;-77
2022/03/28 10:12:23;;;;;;;36.25;19.52;;;;;;;17.62;51.70;101972.41;5002069;28;20209;-77
2022/03/28 10:14:53;;;;;;;40.35;20.52;;;;;;;17.68;51.16;101974.31;4988073;28;20046;-77
2022/03/28 10:17:19;;;;;;;38.58;19.65;;;;;;;17.66;52.39;101968.44;5003129;28;20076;-77
2022/03/28 10:19:46;;;;;;;38.00;20.17;;;;;;;17.61;53.27;101965.53;4988446;28;20030;-76
2022/03/28 10:22:31;;;;;;;37.25;18.73;;;;;;;17.68;52.08;101968.28;5002365;28;20049;-77
2022/03/28 10:25:08;;;;;;;39.47;21.27;;;;;;;17.68;50.79;101949.91;4986978;28;20783;-77
2022/03/28 10:27:36;;;;;;;46.78;22.13;;;;;;;17.42;51.56;101953.72;4997980;28;20330;-81
2022/03/28 10:30:20;;;;;;;45.45;22.13;;;;;;;17.27;52.42;101945.75;4989761;28;20049;-77
2022/03/28 10:32:45;;;;;;;37.58;20.48;;;;;;;17.47;51.86;101943.50;5002290;28;20045;-78
2022/03/28 10:35:13;;;;;;;37.58;19.65;;;;;;;17.17;53.01;101942.53;4988283;28;20069;-78
2022/03/28 10:37:50;;;;;;;36.22;19.60;;;;;;;17.11;53.92;101941.41;5004917;28;20110;-78
2022/03/28 10:40:28;;;;;;;39.30;20.17;;;;;;;17.34;53.63;101935.38;4999345;28;20030;-78
2022/03/28 10:43:11;;;;;;;38.33;21.13;;;;;;;17.29;52.30;101935.06;5005409;28;20676;-79
2022/03/28 10:45:46;;;;;;;40.10;19.88;;;;;;;17.34;53.04;101931.97;5006164;28;20038;-77
2022/03/28 10:48:13;;;;;;;36.05;19.88;;;;;;;17.37;52.92;101926.38;4984795;28;20038;-79
2022/03/28 10:50:54;;;;;;;42.50;21.02;;;;;;;17.50;53.11;101927.41;4993038;28;20076;-78
2022/03/28 10:54:04;;;;;;;41.13;20.20;;;;;;;17.55;52.04;101926.06;4993451;28;20061;-78
2022/03/28 10:56:38;;;;;;;41.67;21.70;;;;;;;17.36;52.42;101930.78;4981680;28;20131;-79
2022/03/28 10:59:12;;;;;;;38.92;20.60;;;;;;;17.40;52.78;101918.16;5006351;28;20121;-79
2022/03/28 11:01:40;;;;;;;43.67;21.58;;;;;;;17.39;52.66;101921.78;4987343;28;20103;-78
2022/03/28 11:04:12;;;;;;;40.75;22.80;;;;;;;17.36;52.68;101917.66;4990206;28;20478;-77
2022/03/28 11:06:43;;;;;;;43.85;22.38;;;;;;;17.60;53.03;101908.03;4988755;28;20108;-78
2022/03/28 11:09:10;;;;;;;43.25;21.38;;;;;;;17.66;52.38;101907.31;5004547;28;20041;-78
2022/03/28 11:11:36;;;;;;;41.33;20.77;;;;;;;17.64;52.20;101899.63;4978289;28;20395;-78
2022/03/28 11:14:08;;;;;;;44.85;22.42;;;;;;;17.78;53.13;101898.03;4993201;28;20049;-79
2022/03/28 11:16:39;;;;;;;48.40;21.70;;;;;;;18.00;52.51;101891.13;5004790;28;20044;-78
2022/03/28 11:19:32;;;;;;;44.40;22.92;;;;;;;17.92;51.30;101893.03;5006174;28;20550;-78